Portada
METAR-TAF:

METAR-TAF

Aeroports :

Al-Riyad, Aràbia Saudita

latitud: 24-56N, longitud: 046-43E, altitud: 614 m

Observació

L'informe es va fer fa 57 minuts, a les 22:00 UTC
Vent calma
Temperatura 17°C
Humitat 82%
Pressió 1020 hPa
Visibilitat 10 km o més
Escasses núvols a una alçada de 4000 ft
Cel ennuvolat a una alçada de 8000 ft

METAR: OERK 132200Z 00000KT 9999 FEW040 BKN080 17/14 Q1020 NOSIG

Hora: 01:57 (22:57 UTC)

Pronòstic

L'informe es va fer fa 5 hores i 57 minuts, a les 17:00 UTC
Pronòstic vàlid del 13 a les 18 UTC al 14 a les 24 UTC
Vent 10 kt del Est
Visibilitat: 7000 m
Núvols disperses a una alçada de 4000 ft
Núvols disperses a una alçada de 10000 ft
Temporalment
l' 13 a les 18 UTC al 13 a les 24 UTC
Visibilitat: 4000 m
Escasses núvols a una alçada de 3500 ft, Cumulonimbus.
Pols estès

TAF: OERK 131700Z 1318/1424 08010KT 7000 SCT040 SCT100 TEMPO 1318/1324 4000 DU FEW035CB

Observacions i pronòstics meteorològics de més de 4000 aeroports (METAR i TAF).

Les estacions disponibles són els punts grocs i vermells al mapa.

Posi el ratolí al punt desitjat per veure el nom de l'estació.

Feu clic per veure les observacions i els pronòstics meteorològics.

Per canviar el mapa: feu clic els botons verds amb una creu de color negre per apropar; al botó verd amb un guió per allunyar la imatge; o en les fletxes verdes per a mapes adjacents.


METAR-TAF: